TimeMST,TemperatureF,Dew PointF,Humidity,Sea Level PressureIn,VisibilityMPH,Wind Direction,Wind SpeedMPH,Gust SpeedMPH,PrecipitationIn,Events,Conditions,WindDirDegrees,DateUTC
12:12 AM,44.1,22.1,42,29.56,10.0,SSE,4.6,-,N/A,,Clear,160,2013-12-03 07:12:00
12:32 AM,47.5,21.0,35,29.56,10.0,NE,4.6,-,N/A,,Clear,50,2013-12-03 07:32:00
12:52 AM,43.9,22.1,42,29.56,10.0,ENE,5.8,-,N/A,,Clear,70,2013-12-03 07:52:00
1:12 AM,47.3,21.2,36,29.56,10.0,SE,6.9,-,N/A,,Clear,130,2013-12-03 08:12:00
1:32 AM,44.1,21.9,42,29.55,10.0,East,9.2,-,N/A,,Clear,100,2013-12-03 08:32:00
1:52 AM,45.3,21.7,39,29.55,10.0,East,5.8,-,N/A,,Clear,100,2013-12-03 08:52:00
2:12 AM,45.0,21.6,40,29.55,10.0,Calm,Calm,-,N/A,,Clear,0,2013-12-03 09:12:00
2:32 AM,45.0,21.4,39,29.56,10.0,East,6.9,-,N/A,,Clear,80,2013-12-03 09:32:00
2:52 AM,42.3,22.3,45,29.56,10.0,Calm,Calm,-,N/A,,Clear,0,2013-12-03 09:52:00
3:12 AM,41.5,22.5,47,29.56,10.0,North,3.5,-,N/A,,Clear,360,2013-12-03 10:12:00
3:32 AM,40.1,23.0,51,29.54,10.0,South,4.6,9.2,N/A,,Clear,180,2013-12-03 10:32:00
3:52 AM,42.1,22.3,45,29.52,10.0,Calm,Calm,-,N/A,,Clear,0,2013-12-03 10:52:00
4:12 AM,49.3,21.0,33,29.51,10.0,WSW,11.5,20.7,N/A,,Clear,250,2013-12-03 11:12:00
4:32 AM,52.9,21.4,29,29.49,10.0,WSW,13.8,25.3,N/A,,Clear,250,2013-12-03 11:32:00
4:52 AM,53.2,20.8,28,29.47,10.0,WSW,12.7,26.5,N/A,,Clear,250,2013-12-03 11:52:00
5:12 AM,54.0,19.9,26,29.48,10.0,WSW,21.9,32.2,N/A,,Clear,240,2013-12-03 12:12:00
5:32 AM,-9999,-9999,N/A,29.47,10.0,WSW,18.4,29.9,N/A,,Clear,240,2013-12-03 12:32:00
5:52 AM,-9999,-9999,N/A,29.48,10.0,WSW,16.1,26.5,N/A,,Clear,240,2013-12-03 12:52:00
6:12 AM,-9999,-9999,N/A,29.48,10.0,WSW,17.3,28.8,N/A,,Clear,250,2013-12-03 13:12:00
6:32 AM,-9999,-9999,N/A,29.49,10.0,WSW,16.1,26.5,N/A,,Clear,250,2013-12-03 13:32:00
6:52 AM,-9999,-9999,N/A,29.48,10.0,South,4.6,-,N/A,,Clear,170,2013-12-03 13:52:00
7:12 AM,-9999,-9999,N/A,29.49,10.0,Calm,Calm,-,N/A,,Clear,0,2013-12-03 14:12:00
7:32 AM,52.0,19.9,28,29.50,10.0,SW,6.9,-,N/A,,Clear,230,2013-12-03 14:32:00
7:52 AM,-9999,-9999,N/A,29.49,10.0,SSW,6.9,-,N/A,,Clear,210,2013-12-03 14:52:00
8:12 AM,-9999,-9999,N/A,29.49,10.0,SW,8.1,-,N/A,,Clear,220,2013-12-03 15:12:00
8:32 AM,-9999,-9999,N/A,29.49,10.0,SW,3.5,-,N/A,,Clear,220,2013-12-03 15:32:00
8:52 AM,-9999,-9999,N/A,29.50,10.0,WSW,9.2,-,N/A,,Clear,250,2013-12-03 15:52:00
9:12 AM,-9999,-9999,N/A,29.50,10.0,WSW,13.8,20.7,N/A,,Clear,240,2013-12-03 16:12:00
9:32 AM,-9999,-9999,N/A,29.51,10.0,West,13.8,21.9,N/A,,Clear,260,2013-12-03 16:32:00
9:52 AM,-9999,-9999,N/A,29.51,10.0,SW,9.2,-,N/A,,Clear,230,2013-12-03 16:52:00
10:12 AM,-9999,-9999,N/A,29.49,10.0,SW,15.0,-,N/A,,Clear,230,2013-12-03 17:12:00
10:32 AM,-9999,-9999,N/A,29.50,10.0,WSW,17.3,21.9,N/A,,Clear,240,2013-12-03 17:32:00
10:52 AM,-9999,-9999,N/A,29.51,10.0,WSW,13.8,23.0,N/A,,Clear,250,2013-12-03 17:52:00
11:12 AM,-9999,-9999,N/A,29.51,10.0,West,12.7,17.3,N/A,,Scattered Clouds,280,2013-12-03 18:12:00
11:32 AM,48.0,30.2,50,29.53,10.0,NNE,8.1,18.4,N/A,,Mostly Cloudy,20,2013-12-03 18:32:00
11:52 AM,43.3,31.5,63,29.53,10.0,NNE,16.1,20.7,N/A,,Overcast,20,2013-12-03 18:52:00
12:12 PM,41.5,28.6,60,29.53,10.0,NE,17.3,21.9,N/A,,Mostly Cloudy,50,2013-12-03 19:12:00
12:32 PM,40.5,26.8,58,29.54,10.0,NNE,12.7,23.0,N/A,,Mostly Cloudy,30,2013-12-03 19:32:00
12:52 PM,39.7,25.2,56,29.54,10.0,NE,17.3,21.9,N/A,,Mostly Cloudy,50,2013-12-03 19:52:00
1:12 PM,38.5,24.3,57,29.55,10.0,ENE,16.1,21.9,N/A,,Mostly Cloudy,60,2013-12-03 20:12:00
1:32 PM,37.4,22.5,55,29.57,10.0,ENE,13.8,19.6,N/A,,Overcast,60,2013-12-03 20:32:00
1:52 PM,35.6,20.3,54,29.57,10.0,ENE,12.7,18.4,N/A,,Overcast,60,2013-12-03 20:52:00
2:12 PM,34.3,19.4,54,29.59,10.0,ENE,9.2,-,N/A,,Overcast,70,2013-12-03 21:12:00
2:32 PM,34.0,19.9,56,29.60,10.0,East,5.8,-,N/A,,Overcast,80,2013-12-03 21:32:00
2:52 PM,33.3,19.4,57,29.62,10.0,East,8.1,-,N/A,,Overcast,80,2013-12-03 21:52:00
3:12 PM,31.8,18.9,59,29.63,10.0,East,10.4,-,N/A,,Overcast,80,2013-12-03 22:12:00
3:32 PM,30.2,18.5,62,29.64,10.0,NE,11.5,-,N/A,,Overcast,50,2013-12-03 22:32:00
3:52 PM,28.8,18.1,65,29.65,7.0,NE,10.4,-,N/A,Snow,Light Snow,40,2013-12-03 22:52:00
4:12 PM,27.5,18.0,67,29.67,10.0,NNE,9.2,-,N/A,,Overcast,30,2013-12-03 23:12:00
4:32 PM,26.6,17.8,69,29.68,7.0,NE,9.2,-,N/A,Snow,Light Snow,50,2013-12-03 23:32:00
4:52 PM,25.0,18.3,76,29.68,4.0,NNE,10.4,-,N/A,Snow,Light Snow,30,2013-12-03 23:52:00
5:12 PM,23.2,18.7,83,29.70,2.0,NNE,10.4,-,N/A,Snow,Light Snow,20,2013-12-04 00:12:00
5:32 PM,22.5,18.3,84,29.71,2.0,NNE,10.4,-,N/A,Snow,Light Snow,30,2013-12-04 00:32:00
5:52 PM,21.7,17.6,84,29.72,2.5,NNE,8.1,-,N/A,Snow,Light Snow,30,2013-12-04 00:52:00
6:12 PM,21.6,17.6,85,29.73,3.0,NNE,10.4,-,N/A,Snow,Light Snow,30,2013-12-04 01:12:00
6:32 PM,20.3,15.8,83,29.74,3.0,NNE,10.4,-,N/A,Snow,Light Snow,20,2013-12-04 01:32:00
6:52 PM,19.8,15.4,83,29.75,2.5,NE,9.2,-,N/A,Snow,Light Snow,50,2013-12-04 01:52:00
7:12 PM,19.0,14.4,82,29.76,2.5,NE,12.7,16.1,N/A,Snow,Light Snow,40,2013-12-04 02:12:00
7:32 PM,18.3,14.0,83,29.77,2.5,NE,11.5,-,N/A,Snow,Light Snow,40,2013-12-04 02:32:00
7:52 PM,17.6,13.1,83,29.78,5.0,NNE,8.1,-,N/A,Snow,Light Snow,30,2013-12-04 02:52:00
8:12 PM,17.4,12.7,82,29.78,3.0,NE,10.4,-,N/A,Snow,Light Snow,40,2013-12-04 03:12:00
8:32 PM,17.1,12.9,84,29.78,2.0,NE,6.9,-,N/A,Snow,Light Snow,40,2013-12-04 03:32:00
8:52 PM,16.7,12.4,83,29.77,2.0,ENE,6.9,-,N/A,Snow,Light Snow,60,2013-12-04 03:52:00
9:12 PM,16.7,12.7,84,29.79,2.0,ENE,8.1,-,N/A,Snow,Light Snow,70,2013-12-04 04:12:00
9:32 PM,16.2,11.7,82,29.78,2.5,ENE,9.2,-,N/A,Snow,Light Snow,70,2013-12-04 04:32:00
9:52 PM,16.2,12.0,84,29.78,2.5,ENE,5.8,-,N/A,Snow,Light Snow,60,2013-12-04 04:52:00
10:12 PM,15.8,11.5,83,29.78,3.0,NE,8.1,-,N/A,Snow,Light Snow,50,2013-12-04 05:12:00
10:32 PM,15.6,11.1,82,29.79,5.0,NE,4.6,-,N/A,Snow,Light Snow,40,2013-12-04 05:32:00
10:52 PM,15.6,11.3,83,29.79,7.0,ENE,6.9,-,N/A,Snow,Light Snow,60,2013-12-04 05:52:00
11:12 PM,14.9,10.2,82,29.79,10.0,NE,5.8,-,N/A,,Overcast,40,2013-12-04 06:12:00
11:32 PM,14.9,10.8,84,29.79,3.0,NNE,5.8,-,N/A,Snow,Light Snow,30,2013-12-04 06:32:00
11:52 PM,14.7,10.4,83,29.79,4.0,NE,4.6,-,N/A,Snow,Light Snow,40,2013-12-04 06:52:00